createdAt,value
2019-01-12T00:02:08.129Z,51.63
2019-01-12T00:04:36.617Z,53.50
2019-01-12T00:07:05.495Z,58.00
2019-01-12T00:09:34.046Z,47.83
2019-01-12T00:12:02.951Z,49.15
2019-01-12T00:14:31.514Z,60.43
2019-01-12T00:17:00.095Z,53.33
2019-01-12T00:19:28.579Z,51.75
2019-01-12T00:21:57.481Z,52.58
2019-01-12T00:24:31.567Z,48.92
2019-01-12T00:26:55.397Z,61.40
2019-01-12T00:29:23.499Z,57.08
2019-01-12T00:31:51.670Z,52.33
2019-01-12T00:34:25.052Z,50.20
2019-01-12T00:36:53.231Z,54.53
2019-01-12T00:39:21.683Z,50.90
2019-01-12T00:41:49.888Z,50.50
2019-01-12T00:44:18.187Z,61.42
2019-01-12T00:46:46.252Z,62.83
2019-01-12T00:49:15.017Z,47.70
2019-01-12T00:51:43.656Z,52.75
2019-01-12T00:54:11.783Z,58.98
2019-01-12T00:56:40.242Z,51.42
2019-01-12T00:59:08.821Z,50.80
2019-01-12T01:01:37.226Z,55.45
2019-01-12T01:04:06.061Z,58.20
2019-01-12T01:06:34.974Z,50.83
2019-01-12T01:09:03.482Z,46.25
2019-01-12T01:11:33.448Z,51.53
2019-01-12T01:14:01.612Z,46.40
2019-01-12T01:16:29.637Z,51.08
2019-01-12T01:18:58.093Z,48.58
2019-01-12T01:21:26.901Z,53.52
2019-01-12T01:23:55.088Z,50.12
2019-01-12T01:26:23.429Z,51.45
2019-01-12T01:28:51.657Z,49.77
2019-01-12T01:31:19.709Z,53.87
2019-01-12T01:33:47.897Z,49.77
2019-01-12T01:36:16.587Z,44.70
2019-01-12T01:38:45.134Z,50.73
2019-01-12T01:41:13.802Z,51.10
2019-01-12T01:43:41.905Z,52.45
2019-01-12T01:46:10.480Z,49.58
2019-01-12T01:48:38.901Z,47.00
2019-01-12T01:51:07.269Z,57.55
2019-01-12T01:53:35.697Z,46.00
2019-01-12T01:56:03.810Z,49.63
2019-01-12T01:58:32.305Z,50.08
2019-01-12T02:01:00.729Z,42.60
2019-01-12T02:03:28.870Z,45.15
2019-01-12T02:05:57.476Z,47.08
2019-01-12T02:08:25.751Z,55.48
2019-01-12T02:10:54.487Z,50.85
2019-01-12T02:13:22.529Z,42.05
2019-01-12T02:15:51.149Z,45.15
2019-01-12T02:18:19.231Z,42.17
2019-01-12T02:20:47.713Z,40.83
2019-01-12T02:23:15.908Z,40.83
2019-01-12T02:25:44.558Z,43.58
2019-01-12T02:28:12.733Z,42.40
2019-01-12T02:30:41.187Z,44.18
2019-01-12T02:33:10.028Z,43.52
2019-01-12T02:35:38.615Z,47.70
2019-01-12T02:38:07.094Z,34.95
2019-01-12T02:40:35.143Z,38.10
2019-01-12T02:43:03.544Z,41.02
2019-01-12T02:45:31.665Z,43.70
2019-01-12T02:47:59.777Z,34.65
2019-01-12T02:50:28.058Z,37.58
2019-01-12T02:52:57.021Z,37.55
2019-01-12T02:55:25.225Z,38.55
2019-01-12T02:57:53.679Z,32.85
2019-01-12T03:00:21.978Z,36.95
2019-01-12T03:02:50.102Z,34.90
2019-01-12T03:05:18.529Z,41.63
2019-01-12T03:07:46.970Z,31.35
2019-01-12T03:10:16.632Z,33.33
2019-01-12T03:12:44.813Z,35.90
2019-01-12T03:15:13.976Z,41.40
2019-01-12T03:17:42.098Z,38.80
2019-01-12T03:20:11.199Z,36.85
2019-01-12T03:22:39.338Z,31.30
2019-01-12T03:25:07.775Z,39.63
2019-01-12T03:27:35.793Z,30.55
2019-01-12T03:30:05.762Z,31.48
2019-01-12T03:32:34.349Z,38.45
2019-01-12T03:35:02.494Z,36.70
2019-01-12T03:37:31.399Z,30.27
2019-01-12T03:40:00.526Z,35.40
2019-01-12T03:42:28.890Z,40.15
2019-01-12T03:44:57.157Z,30.92
2019-01-12T03:47:25.545Z,36.00
2019-01-12T03:49:54.068Z,33.38
2019-01-12T03:52:22.922Z,32.03
2019-01-12T03:54:51.803Z,33.15
2019-01-12T03:57:19.951Z,36.03
2019-01-12T03:59:48.541Z,30.08
2019-01-12T04:02:17.196Z,31.35
2019-01-12T04:04:45.677Z,31.95
2019-01-12T04:07:14.696Z,33.88
2019-01-12T04:09:43.115Z,34.83
2019-01-12T04:12:11.439Z,27.58
2019-01-12T04:14:40.513Z,40.45
2019-01-12T04:17:08.710Z,32.03
2019-01-12T04:19:36.826Z,35.43
2019-01-12T04:22:05.046Z,32.23
2019-01-12T04:24:33.206Z,31.20
2019-01-12T04:27:01.654Z,33.80
2019-01-12T04:29:30.513Z,31.60
2019-01-12T04:31:58.567Z,29.90
2019-01-12T04:34:27.050Z,35.15
2019-01-12T04:36:55.138Z,27.40
2019-01-12T04:39:24.829Z,22.70
2019-01-12T04:41:53.209Z,30.35
2019-01-12T04:44:21.993Z,27.87
2019-01-12T04:46:50.275Z,30.70
2019-01-12T04:49:18.645Z,28.93
2019-01-12T04:51:47.304Z,37.08
2019-01-12T04:54:15.365Z,26.47
2019-01-12T04:56:43.679Z,28.30
2019-01-12T04:59:11.773Z,31.87
2019-01-12T05:01:40.611Z,24.37
2019-01-12T05:04:09.259Z,31.75
2019-01-12T05:06:37.677Z,29.42
2019-01-12T05:09:07.549Z,26.52
2019-01-12T05:11:36.238Z,30.53
2019-01-12T05:14:04.720Z,26.50
2019-01-12T05:16:32.877Z,26.42
2019-01-12T05:19:01.369Z,27.87
2019-01-12T05:21:29.894Z,25.27
2019-01-12T05:23:58.231Z,28.55
2019-01-12T05:26:26.394Z,28.87
2019-01-12T05:28:54.755Z,27.55
2019-01-12T05:31:23.617Z,25.07
2019-01-12T05:33:52.174Z,28.35
2019-01-12T05:36:20.553Z,29.25
2019-01-12T05:38:49.070Z,28.27
2019-01-12T05:41:17.257Z,30.20
2019-01-12T05:43:45.353Z,30.88
2019-01-12T05:46:13.833Z,30.43
2019-01-12T05:48:41.874Z,36.58
2019-01-12T05:51:09.913Z,27.17
2019-01-12T05:53:38.683Z,27.60
2019-01-12T05:56:07.784Z,30.92
2019-01-12T05:58:35.881Z,30.10
2019-01-12T06:01:04.386Z,30.48
2019-01-12T06:03:32.598Z,25.77
2019-01-12T06:06:00.681Z,29.92
2019-01-12T06:08:29.038Z,24.40
2019-01-12T06:10:57.445Z,27.05
2019-01-12T06:13:26.025Z,26.27
2019-01-12T06:15:54.102Z,25.65
2019-01-12T06:18:22.358Z,27.05
2019-01-12T06:20:51.326Z,27.13
2019-01-12T06:23:20.033Z,24.15
2019-01-12T06:25:48.387Z,24.77
2019-01-12T06:28:16.387Z,24.33
2019-01-12T06:30:45.521Z,20.23
2019-01-12T06:33:13.938Z,24.72
2019-01-12T06:35:42.243Z,22.82
2019-01-12T06:38:10.418Z,25.88
2019-01-12T06:40:38.510Z,24.60
2019-01-12T06:43:06.767Z,24.63
2019-01-12T06:45:34.929Z,26.55
2019-01-12T06:48:03.582Z,22.90
2019-01-12T06:50:31.699Z,25.53
2019-01-12T06:53:00.381Z,25.20
2019-01-12T06:55:29.093Z,26.23
2019-01-12T06:57:57.510Z,24.20
2019-01-12T07:00:26.309Z,20.23
2019-01-12T07:02:55.089Z,21.33
2019-01-12T07:05:23.474Z,22.87
2019-01-12T07:07:52.304Z,21.23
2019-01-12T07:10:20.489Z,22.87
2019-01-12T07:12:48.646Z,19.30
2019-01-12T07:15:17.124Z,18.52
2019-01-12T07:17:45.817Z,12.00
2019-01-12T07:20:14.660Z,13.70
2019-01-12T07:22:44.481Z,11.63
2019-01-12T07:25:12.898Z,12.15
2019-01-12T07:27:41.235Z,10.83
2019-01-12T07:30:12.191Z,8.58
2019-01-12T07:32:40.407Z,11.15
2019-01-12T07:35:09.082Z,12.20
2019-01-12T07:37:37.766Z,10.60
2019-01-12T07:40:07.137Z,7.08
2019-01-12T07:42:35.257Z,11.30
2019-01-12T07:45:03.417Z,11.90
2019-01-12T07:47:31.478Z,10.98
2019-01-12T07:50:00.009Z,11.25
2019-01-12T07:52:28.656Z,11.55
2019-01-12T07:54:57.343Z,11.55
2019-01-12T07:57:25.442Z,6.58
2019-01-12T07:59:53.590Z,6.00
2019-01-12T08:02:21.762Z,7.65
2019-01-12T08:04:49.894Z,9.88
2019-01-12T08:07:19.793Z,6.67
2019-01-12T08:09:48.030Z,7.25
2019-01-12T08:12:16.334Z,5.28
2019-01-12T08:14:44.440Z,7.05
2019-01-12T08:17:12.702Z,9.45
2019-01-12T08:19:41.233Z,6.87
2019-01-12T08:22:09.926Z,10.72
2019-01-12T08:24:38.506Z,13.93
2019-01-12T08:27:06.554Z,7.62
2019-01-12T08:29:35.154Z,7.12
2019-01-12T08:32:03.609Z,8.03
2019-01-12T08:34:32.593Z,7.45
2019-01-12T08:37:01.386Z,7.95
2019-01-12T08:39:29.897Z,7.03
2019-01-12T08:41:58.212Z,7.93
2019-01-12T08:44:27.449Z,5.78
2019-01-12T08:46:56.581Z,8.23
2019-01-12T08:49:24.649Z,8.20
2019-01-12T08:51:53.270Z,8.03
2019-01-12T08:54:21.283Z,6.78
2019-01-12T08:56:51.980Z,7.12
2019-01-12T08:59:20.482Z,6.65
2019-01-12T09:01:48.616Z,6.08
2019-01-12T09:04:16.689Z,6.40
2019-01-12T09:06:46.250Z,7.30
2019-01-12T09:09:14.834Z,8.10
2019-01-12T09:11:43.615Z,3.50
2019-01-12T09:14:11.969Z,4.42
2019-01-12T09:16:40.152Z,2.15
2019-01-12T09:19:08.405Z,2.50
2019-01-12T09:21:37.084Z,1.80
2019-01-12T09:24:05.501Z,3.27
2019-01-12T09:26:33.571Z,2.90
2019-01-12T09:29:01.833Z,3.27
2019-01-12T09:31:30.254Z,2.80
2019-01-12T09:33:58.381Z,3.67
2019-01-12T09:36:26.786Z,4.00
2019-01-12T09:38:54.955Z,2.30
2019-01-12T09:41:23.177Z,2.67
2019-01-12T09:43:51.619Z,2.58
2019-01-12T09:46:19.953Z,2.45
2019-01-12T09:48:47.888Z,2.33
2019-01-12T09:51:16.244Z,5.12
2019-01-12T09:53:44.277Z,4.30
2019-01-12T09:56:12.551Z,3.20
2019-01-12T09:58:40.491Z,7.15
2019-01-12T10:01:09.137Z,4.33
2019-01-12T10:03:37.172Z,4.50
2019-01-12T10:06:05.380Z,4.05
2019-01-12T10:08:33.654Z,2.50
2019-01-12T10:11:02.245Z,3.05
2019-01-12T10:13:30.198Z,3.85
2019-01-12T10:15:58.468Z,2.77
2019-01-12T10:18:26.428Z,3.67
2019-01-12T10:20:56.167Z,3.20
2019-01-12T10:23:24.113Z,3.33
2019-01-12T10:25:52.400Z,3.10
2019-01-12T10:28:20.981Z,9.50
2019-01-12T10:30:49.584Z,11.20
2019-01-12T10:33:17.863Z,6.65
2019-01-12T10:35:46.651Z,7.37
2019-01-12T10:38:15.002Z,8.40
2019-01-12T10:40:43.296Z,5.37
2019-01-12T10:43:11.274Z,6.70
2019-01-12T10:45:39.635Z,5.30
2019-01-12T10:48:07.651Z,5.55
2019-01-12T10:50:43.930Z,5.35
2019-01-12T10:53:12.258Z,7.62
2019-01-12T10:55:40.262Z,7.57
2019-01-12T10:58:10.709Z,6.50
2019-01-12T11:00:39.416Z,6.72
2019-01-12T11:03:08.143Z,5.10
2019-01-12T11:05:36.090Z,5.47
2019-01-12T11:08:05.005Z,7.22
2019-01-12T11:10:33.032Z,7.78
2019-01-12T11:13:00.989Z,8.70
2019-01-12T11:15:28.930Z,7.10
2019-01-12T11:17:56.923Z,6.55
2019-01-12T11:20:24.903Z,7.90
2019-01-12T11:22:53.208Z,10.40
2019-01-12T11:25:21.398Z,8.53
2019-01-12T11:27:49.376Z,9.48
2019-01-12T11:30:18.467Z,6.35
2019-01-12T11:32:46.510Z,7.17
2019-01-12T11:35:14.494Z,7.33
2019-01-12T11:37:42.746Z,4.85
2019-01-12T11:40:12.600Z,6.60
2019-01-12T11:42:40.554Z,12.33
2019-01-12T11:45:09.046Z,6.85
2019-01-12T11:47:37.007Z,5.28
2019-01-12T11:50:06.482Z,7.22
2019-01-12T11:52:34.555Z,6.53
2019-01-12T11:55:02.503Z,5.70
2019-01-12T11:57:33.921Z,8.90
2019-01-12T12:00:01.915Z,5.78
2019-01-12T12:02:30.154Z,7.05
2019-01-12T12:04:58.149Z,6.65
2019-01-12T12:07:26.140Z,7.83
2019-01-12T12:09:54.478Z,9.13
2019-01-12T12:12:22.455Z,4.78
2019-01-12T12:14:50.715Z,5.42
2019-01-12T12:17:18.929Z,6.00
2019-01-12T12:19:47.149Z,8.28
2019-01-12T12:22:15.127Z,6.42
2019-01-12T12:24:43.111Z,7.33
2019-01-12T12:27:11.026Z,7.35
2019-01-12T12:29:39.379Z,6.20
2019-01-12T12:32:07.640Z,5.33
2019-01-12T12:34:35.601Z,6.92
2019-01-12T12:37:03.892Z,7.37
2019-01-12T12:39:32.155Z,6.50
2019-01-12T12:42:00.125Z,5.42
2019-01-12T12:44:29.295Z,3.98
2019-01-12T12:46:57.536Z,4.72
2019-01-12T12:49:26.961Z,5.10
2019-01-12T12:51:54.959Z,6.12
2019-01-12T12:54:22.915Z,4.60
2019-01-12T12:56:51.031Z,6.47
2019-01-12T12:59:19.986Z,4.53
2019-01-12T13:01:48.584Z,4.87
2019-01-12T13:04:16.573Z,5.58
2019-01-12T13:06:44.526Z,6.17
2019-01-12T13:09:12.538Z,6.60
2019-01-12T13:11:40.483Z,5.87
2019-01-12T13:14:08.667Z,5.60
2019-01-12T13:16:38.844Z,5.45
2019-01-12T13:19:07.154Z,5.58
2019-01-12T13:21:35.149Z,10.30
2019-01-12T13:24:03.060Z,7.37
2019-01-12T13:26:31.091Z,8.65
2019-01-12T13:28:59.306Z,6.72
2019-01-12T13:31:27.295Z,5.75
2019-01-12T13:33:55.582Z,7.12
2019-01-12T13:36:23.892Z,7.90
2019-01-12T13:38:51.910Z,7.62
2019-01-12T13:41:19.887Z,6.60
2019-01-12T13:43:47.846Z,5.55
2019-01-12T13:46:16.116Z,6.67
2019-01-12T13:48:44.085Z,6.00
2019-01-12T13:51:12.403Z,5.97
2019-01-12T13:53:40.422Z,7.12
2019-01-12T13:56:08.640Z,9.28
2019-01-12T13:58:36.927Z,7.08
2019-01-12T14:01:05.507Z,7.10
2019-01-12T14:03:33.486Z,7.45
2019-01-12T14:06:01.856Z,7.03
2019-01-12T14:08:29.815Z,7.85
2019-01-12T14:10:58.108Z,8.28
2019-01-12T14:13:26.382Z,7.40
2019-01-12T14:15:54.966Z,8.20
2019-01-12T14:18:23.199Z,7.42
2019-01-12T14:20:52.139Z,9.00
2019-01-12T14:23:20.865Z,7.90
2019-01-12T14:25:49.162Z,10.48
2019-01-12T14:28:17.190Z,9.08
2019-01-12T14:30:45.167Z,8.83
2019-01-12T14:33:13.417Z,7.30
2019-01-12T14:35:41.798Z,7.92
2019-01-12T14:38:10.078Z,7.83
2019-01-12T14:40:38.062Z,7.20
2019-01-12T14:43:06.317Z,7.53
2019-01-12T14:45:35.908Z,7.10
2019-01-12T14:48:05.570Z,7.87
2019-01-12T14:50:33.527Z,8.83
2019-01-12T14:53:01.748Z,10.93
2019-01-12T14:55:30.263Z,6.70
2019-01-12T14:58:02.758Z,7.62
2019-01-12T15:00:29.392Z,7.42
2019-01-12T15:02:57.437Z,6.25
2019-01-12T15:05:26.728Z,10.78
2019-01-12T15:07:55.330Z,9.67
2019-01-12T15:10:23.995Z,8.03
2019-01-12T15:12:53.188Z,5.70
2019-01-12T15:15:21.130Z,6.22
2019-01-12T15:17:49.127Z,5.97
2019-01-12T15:20:21.115Z,6.28
2019-01-12T15:22:49.603Z,6.65
2019-01-12T15:25:17.577Z,5.50
2019-01-12T15:27:45.768Z,4.90
2019-01-12T15:30:15.374Z,5.83
2019-01-12T15:32:43.319Z,4.97
2019-01-12T15:35:11.264Z,5.10
2019-01-12T15:37:39.947Z,4.67
2019-01-12T15:40:08.998Z,7.00
2019-01-12T15:42:37.355Z,5.70
2019-01-12T15:45:08.079Z,5.30
2019-01-12T15:47:36.354Z,7.10
2019-01-12T15:50:05.681Z,6.00
2019-01-12T15:52:34.047Z,4.22
2019-01-12T15:55:02.298Z,5.60
2019-01-12T15:57:30.571Z,5.15
2019-01-12T15:59:58.550Z,4.75
2019-01-12T16:02:26.758Z,4.75
2019-01-12T16:04:55.027Z,6.35
2019-01-12T16:07:22.995Z,7.17
2019-01-12T16:09:51.642Z,11.35
2019-01-12T16:12:20.263Z,8.88
2019-01-12T16:14:48.533Z,8.38
2019-01-12T16:17:17.798Z,8.75
2019-01-12T16:19:46.627Z,6.83
2019-01-12T16:22:14.584Z,8.03
2019-01-12T16:24:42.978Z,7.80
2019-01-12T16:27:11.254Z,11.70
2019-01-12T16:29:39.224Z,8.98
2019-01-12T16:32:08.308Z,8.05
2019-01-12T16:34:36.593Z,13.50
2019-01-12T16:37:05.163Z,11.57
2019-01-12T16:39:33.167Z,16.90
2019-01-12T16:42:01.531Z,11.33
2019-01-12T16:44:29.473Z,13.95
2019-01-12T16:46:57.751Z,12.25
2019-01-12T16:49:26.056Z,10.93
2019-01-12T16:51:54.054Z,10.50
2019-01-12T16:54:22.708Z,10.50
2019-01-12T16:56:50.861Z,12.78
2019-01-12T16:59:18.791Z,11.20
2019-01-12T17:01:46.814Z,12.85
2019-01-12T17:04:15.114Z,11.40
2019-01-12T17:06:43.374Z,13.22
2019-01-12T17:09:11.366Z,11.93
2019-01-12T17:11:39.358Z,14.45
2019-01-12T17:14:07.368Z,11.43
2019-01-12T17:16:35.339Z,14.40
2019-01-12T17:19:04.048Z,17.40
2019-01-12T17:21:32.323Z,16.12
2019-01-12T17:24:00.598Z,13.72
2019-01-12T17:26:28.887Z,13.85
2019-01-12T17:28:57.175Z,13.90
2019-01-12T17:31:25.415Z,10.95
2019-01-12T17:33:53.706Z,13.13
2019-01-12T17:36:21.667Z,15.43
2019-01-12T17:38:49.646Z,15.48
2019-01-12T17:41:17.940Z,15.78
2019-01-12T17:43:45.919Z,16.37
2019-01-12T17:46:13.892Z,13.03
2019-01-12T17:48:42.550Z,14.00
2019-01-12T17:51:10.527Z,12.53
2019-01-12T17:53:39.612Z,15.60
2019-01-12T17:56:07.894Z,15.93
2019-01-12T17:58:36.391Z,11.15
2019-01-12T18:01:05.952Z,18.77
2019-01-12T18:03:34.220Z,17.32
2019-01-12T18:06:02.223Z,16.80
2019-01-12T18:08:32.695Z,17.25
2019-01-12T18:11:01.127Z,14.63
2019-01-12T18:13:29.416Z,13.03
2019-01-12T18:15:58.050Z,15.35
2019-01-12T18:18:26.364Z,13.65
2019-01-12T18:20:54.310Z,17.27
2019-01-12T18:23:22.651Z,15.45
2019-01-12T18:25:50.589Z,17.92
2019-01-12T18:28:18.538Z,20.80
2019-01-12T18:30:46.834Z,16.90
2019-01-12T18:33:14.835Z,18.92
2019-01-12T18:35:43.500Z,16.35
2019-01-12T18:38:11.771Z,18.02
2019-01-12T18:40:39.746Z,18.90
2019-01-12T18:43:08.811Z,15.28
2019-01-12T18:45:36.778Z,22.55
2019-01-12T18:48:05.202Z,17.42
2019-01-12T18:50:33.567Z,11.97
2019-01-12T18:53:01.945Z,15.88
2019-01-12T18:55:30.635Z,14.13
2019-01-12T18:57:58.910Z,14.03
2019-01-12T19:00:27.913Z,14.93
2019-01-12T19:02:56.505Z,16.40
2019-01-12T19:05:24.546Z,12.85
2019-01-12T19:07:52.531Z,16.07
2019-01-12T19:10:20.843Z,18.87
2019-01-12T19:12:49.501Z,20.52
2019-01-12T19:15:19.001Z,22.00
2019-01-12T19:17:46.951Z,22.50
2019-01-12T19:20:15.246Z,15.23
2019-01-12T19:22:44.830Z,13.90
2019-01-12T19:25:13.198Z,13.68
2019-01-12T19:27:41.507Z,14.18
2019-01-12T19:30:19.155Z,18.63
2019-01-12T19:32:47.483Z,14.47
2019-01-12T19:35:15.446Z,15.43
2019-01-12T19:37:43.463Z,15.80
2019-01-12T19:40:15.663Z,15.95
2019-01-12T19:42:43.983Z,17.20
2019-01-12T19:45:12.951Z,15.95
2019-01-12T19:47:40.873Z,18.07
2019-01-12T19:50:10.754Z,16.67
2019-01-12T19:52:39.098Z,16.73
2019-01-12T19:55:07.347Z,14.53
2019-01-12T19:57:35.991Z,16.00
2019-01-12T20:00:05.546Z,14.33
2019-01-12T20:02:33.555Z,17.23
2019-01-12T20:05:01.857Z,15.78
2019-01-12T20:07:30.119Z,17.17
2019-01-12T20:09:58.382Z,19.10
2019-01-12T20:12:26.377Z,17.30
2019-01-12T20:14:54.629Z,19.30
2019-01-12T20:17:22.918Z,16.52
2019-01-12T20:19:51.196Z,18.77
2019-01-12T20:22:19.470Z,17.27
2019-01-12T20:24:47.747Z,22.45
2019-01-12T20:27:15.687Z,12.80
2019-01-12T20:29:43.676Z,17.10
2019-01-12T20:32:36.750Z,17.37
2019-01-12T20:35:09.426Z,21.57
2019-01-12T20:37:59.623Z,16.15
2019-01-12T20:40:40.498Z,18.10
2019-01-12T20:43:46.007Z,17.62
2019-01-12T20:46:33.082Z,19.20
2019-01-12T20:49:06.599Z,17.83
2019-01-12T20:51:45.686Z,17.27
2019-01-12T20:54:20.419Z,18.05
2019-01-12T20:57:01.747Z,17.35
2019-01-12T20:59:51.346Z,16.12
2019-01-12T21:02:26.507Z,24.57
2019-01-12T21:05:04.131Z,16.62
2019-01-12T21:07:38.043Z,17.12
2019-01-12T21:10:13.978Z,17.05
2019-01-12T21:13:07.139Z,13.20
2019-01-12T21:15:38.367Z,14.65
2019-01-12T21:18:06.663Z,18.85
2019-01-12T21:20:34.651Z,17.57
2019-01-12T21:23:03.518Z,21.93
2019-01-12T21:25:31.887Z,23.38
2019-01-12T21:28:00.486Z,19.02
2019-01-12T21:30:29.053Z,20.20
2019-01-12T21:32:57.019Z,18.35
2019-01-12T21:35:25.036Z,18.65
2019-01-12T21:37:53.030Z,15.20
2019-01-12T21:40:20.982Z,18.73
2019-01-12T21:42:49.224Z,13.68
2019-01-12T21:45:17.813Z,10.70
2019-01-12T21:47:45.794Z,14.30
2019-01-12T21:50:14.374Z,13.53
2019-01-12T21:52:42.328Z,10.68
2019-01-12T21:55:10.612Z,14.28
2019-01-12T21:57:38.584Z,12.50
2019-01-12T22:00:08.606Z,13.25
2019-01-12T22:02:36.886Z,9.70
2019-01-12T22:05:05.762Z,11.93
2019-01-12T22:07:34.143Z,8.90
2019-01-12T22:10:02.418Z,8.90
2019-01-12T22:12:30.699Z,9.53
2019-01-12T22:15:00.615Z,8.03
2019-01-12T22:17:28.551Z,6.45
2019-01-12T22:19:56.839Z,8.85
2019-01-12T22:22:25.136Z,5.75
2019-01-12T22:24:53.146Z,6.95
2019-01-12T22:27:21.468Z,5.67
2019-01-12T22:29:50.200Z,3.90
2019-01-12T22:32:18.202Z,3.22
2019-01-12T22:34:46.503Z,3.30
2019-01-12T22:37:14.787Z,4.30
2019-01-12T22:39:43.036Z,5.05
2019-01-12T22:42:11.008Z,4.83
2019-01-12T22:44:39.325Z,3.58
2019-01-12T22:47:07.312Z,3.15
2019-01-12T22:49:35.664Z,4.20
2019-01-12T22:52:03.610Z,4.33
2019-01-12T22:54:31.626Z,3.63
2019-01-12T22:56:59.708Z,4.13
2019-01-12T22:59:27.750Z,3.63
2019-01-12T23:01:57.766Z,4.10
2019-01-12T23:04:26.822Z,2.80
2019-01-12T23:06:54.787Z,5.10
2019-01-12T23:09:23.319Z,7.13
2019-01-12T23:11:51.430Z,5.10
2019-01-12T23:14:19.346Z,5.08
2019-01-12T23:16:47.824Z,5.37
2019-01-12T23:19:16.636Z,4.80
2019-01-12T23:21:45.003Z,4.97
2019-01-12T23:24:13.283Z,6.67
2019-01-12T23:26:43.444Z,5.75
2019-01-12T23:29:11.691Z,7.03
2019-01-12T23:31:39.886Z,6.78
2019-01-12T23:34:07.898Z,7.70
2019-01-12T23:36:35.858Z,4.85
2019-01-12T23:39:06.075Z,5.78
2019-01-12T23:41:34.011Z,7.62
2019-01-12T23:44:02.262Z,4.72
2019-01-12T23:46:30.916Z,7.05
2019-01-12T23:48:58.854Z,8.00
2019-01-12T23:51:27.096Z,6.70
2019-01-12T23:53:55.079Z,6.90
2019-01-12T23:56:23.466Z,7.97
2019-01-12T23:58:51.431Z,7.80
